sensor_id;sensor_type;location;lat;lon;timestamp;pressure;altitude;pressure_sealevel;temperature;humidity
65190;BME280;51777;53.570;9.984;2024-03-29T00:00:34;99095.13;;;8.24;100.00
65190;BME280;51777;53.570;9.984;2024-03-29T00:03:00;99102.06;;;8.23;100.00
65190;BME280;51777;53.570;9.984;2024-03-29T00:05:25;99104.00;;;8.21;100.00
65190;BME280;51777;53.570;9.984;2024-03-29T00:07:50;99104.00;;;8.21;100.00
65190;BME280;51777;53.570;9.984;2024-03-29T00:10:16;99099.03;;;8.20;100.00
65190;BME280;51777;53.570;9.984;2024-03-29T00:12:41;99101.59;;;8.20;100.00
65190;BME280;51777;53.570;9.984;2024-03-29T00:15:07;99100.81;;;8.19;100.00
65190;BME280;51777;53.570;9.984;2024-03-29T00:17:32;99091.31;;;8.20;100.00
65190;BME280;51777;53.570;9.984;2024-03-29T00:19:58;99090.19;;;8.14;100.00
65190;BME280;51777;53.570;9.984;2024-03-29T00:22:23;99090.19;;;8.14;100.00
65190;BME280;51777;53.570;9.984;2024-03-29T00:24:49;99091.19;;;8.13;100.00
65190;BME280;51777;53.570;9.984;2024-03-29T00:27:14;99094.09;;;8.10;100.00
65190;BME280;51777;53.570;9.984;2024-03-29T00:29:39;99091.06;;;8.07;100.00
65190;BME280;51777;53.570;9.984;2024-03-29T00:32:05;99098.13;;;8.05;100.00
65190;BME280;51777;53.570;9.984;2024-03-29T00:34:31;99099.28;;;8.02;100.00
65190;BME280;51777;53.570;9.984;2024-03-29T00:36:56;99102.03;;;8.01;100.00
65190;BME280;51777;53.570;9.984;2024-03-29T00:39:22;99098.81;;;7.99;100.00
65190;BME280;51777;53.570;9.984;2024-03-29T00:41:47;99096.78;;;7.94;100.00
65190;BME280;51777;53.570;9.984;2024-03-29T00:44:13;99096.91;;;7.92;100.00
65190;BME280;51777;53.570;9.984;2024-03-29T00:46:39;99092.28;;;7.88;100.00
65190;BME280;51777;53.570;9.984;2024-03-29T00:49:04;99096.16;;;7.84;100.00
65190;BME280;51777;53.570;9.984;2024-03-29T00:51:29;99099.06;;;7.81;100.00
65190;BME280;51777;53.570;9.984;2024-03-29T00:53:55;99101.97;;;7.78;100.00
65190;BME280;51777;53.570;9.984;2024-03-29T00:56:20;99100.72;;;7.74;100.00
65190;BME280;51777;53.570;9.984;2024-03-29T00:58:45;99110.38;;;7.72;100.00
65190;BME280;51777;53.570;9.984;2024-03-29T01:01:11;99095.91;;;7.71;100.00
65190;BME280;51777;53.570;9.984;2024-03-29T01:03:37;99110.69;;;7.69;100.00
65190;BME280;51777;53.570;9.984;2024-03-29T01:06:02;99098.16;;;7.65;100.00
65190;BME280;51777;53.570;9.984;2024-03-29T01:08:28;99104.44;;;7.63;100.00
65190;BME280;51777;53.570;9.984;2024-03-29T01:10:53;99090.78;;;7.62;100.00
65190;BME280;51777;53.570;9.984;2024-03-29T01:13:19;99093.38;;;7.62;100.00
65190;BME280;51777;53.570;9.984;2024-03-29T01:15:45;99098.69;;;7.61;100.00
65190;BME280;51777;53.570;9.984;2024-03-29T01:18:10;99099.81;;;7.58;100.00
65190;BME280;51777;53.570;9.984;2024-03-29T01:20:35;99096.94;;;7.53;100.00
65190;BME280;51777;53.570;9.984;2024-03-29T01:23:01;99098.88;;;7.51;100.00
65190;BME280;51777;53.570;9.984;2024-03-29T01:25:26;99104.97;;;7.50;100.00
65190;BME280;51777;53.570;9.984;2024-03-29T01:27:52;99098.41;;;7.48;100.00
65190;BME280;51777;53.570;9.984;2024-03-29T01:30:18;99102.13;;;7.45;100.00
65190;BME280;51777;53.570;9.984;2024-03-29T01:32:43;99095.38;;;7.44;100.00
65190;BME280;51777;53.570;9.984;2024-03-29T01:35:09;99103.88;;;7.45;100.00
65190;BME280;51777;53.570;9.984;2024-03-29T01:37:34;99096.31;;;7.43;100.00
65190;BME280;51777;53.570;9.984;2024-03-29T01:40:00;99112.41;;;7.45;100.00
65190;BME280;51777;53.570;9.984;2024-03-29T01:42:25;99107.56;;;7.42;100.00
65190;BME280;51777;53.570;9.984;2024-03-29T01:44:51;99104.38;;;7.40;100.00
65190;BME280;51777;53.570;9.984;2024-03-29T01:47:17;99101.31;;;7.36;100.00
65190;BME280;51777;53.570;9.984;2024-03-29T01:49:44;99108.25;;;7.36;100.00
65190;BME280;51777;53.570;9.984;2024-03-29T01:52:12;99102.47;;;7.34;100.00
65190;BME280;51777;53.570;9.984;2024-03-29T01:54:37;99101.00;;;7.31;100.00
65190;BME280;51777;53.570;9.984;2024-03-29T01:57:04;99106.16;;;7.31;100.00
65190;BME280;51777;53.570;9.984;2024-03-29T01:59:30;99100.38;;;7.29;100.00
65190;BME280;51777;53.570;9.984;2024-03-29T02:01:58;99100.72;;;7.26;100.00
65190;BME280;51777;53.570;9.984;2024-03-29T02:04:24;99100.88;;;7.25;100.00
65190;BME280;51777;53.570;9.984;2024-03-29T02:06:49;99109.38;;;7.25;100.00
65190;BME280;51777;53.570;9.984;2024-03-29T02:09:15;99101.22;;;7.22;100.00
65190;BME280;51777;53.570;9.984;2024-03-29T02:11:41;99102.00;;;7.22;100.00
65190;BME280;51777;53.570;9.984;2024-03-29T02:14:06;99106.34;;;7.22;100.00
65190;BME280;51777;53.570;9.984;2024-03-29T02:16:32;99109.09;;;7.20;100.00
65190;BME280;51777;53.570;9.984;2024-03-29T02:18:57;99111.78;;;7.19;100.00
65190;BME280;51777;53.570;9.984;2024-03-29T02:21:23;99108.59;;;7.17;100.00
65190;BME280;51777;53.570;9.984;2024-03-29T02:23:58;99116.47;;;7.15;100.00
65190;BME280;51777;53.570;9.984;2024-03-29T02:26:23;99120.81;;;7.15;100.00
65190;BME280;51777;53.570;9.984;2024-03-29T02:28:51;99118.25;;;7.15;100.00
65190;BME280;51777;53.570;9.984;2024-03-29T02:31:17;99120.19;;;7.13;100.00
65190;BME280;51777;53.570;9.984;2024-03-29T02:33:42;99117.59;;;7.13;100.00
65190;BME280;51777;53.570;9.984;2024-03-29T02:36:08;99121.94;;;7.12;100.00
65190;BME280;51777;53.570;9.984;2024-03-29T02:38:33;99122.91;;;7.11;100.00
65190;BME280;51777;53.570;9.984;2024-03-29T02:40:58;99124.84;;;7.09;100.00
65190;BME280;51777;53.570;9.984;2024-03-29T02:43:24;99123.06;;;7.10;100.00
65190;BME280;51777;53.570;9.984;2024-03-29T02:45:50;99130.78;;;7.10;100.00
65190;BME280;51777;53.570;9.984;2024-03-29T02:48:15;99130.78;;;7.10;100.00
65190;BME280;51777;53.570;9.984;2024-03-29T02:50:40;99128.22;;;7.10;100.00
65190;BME280;51777;53.570;9.984;2024-03-29T02:53:06;99127.59;;;7.07;100.00
65190;BME280;51777;53.570;9.984;2024-03-29T02:55:31;99121.47;;;7.09;100.00
65190;BME280;51777;53.570;9.984;2024-03-29T02:57:57;99128.38;;;7.08;100.00
65190;BME280;51777;53.570;9.984;2024-03-29T03:00:22;99122.44;;;7.07;100.00
65190;BME280;51777;53.570;9.984;2024-03-29T03:02:47;99125.00;;;7.07;100.00
65190;BME280;51777;53.570;9.984;2024-03-29T03:05:13;99130.16;;;7.07;100.00
65190;BME280;51777;53.570;9.984;2024-03-29T03:07:39;99113.09;;;7.06;100.00
65190;BME280;51777;53.570;9.984;2024-03-29T03:10:23;99113.09;;;7.06;100.00
65190;BME280;51777;53.570;9.984;2024-03-29T03:13:07;99112.28;;;7.06;100.00
65190;BME280;51777;53.570;9.984;2024-03-29T03:15:32;99107.50;;;7.03;100.00
65190;BME280;51777;53.570;9.984;2024-03-29T03:17:58;99111.19;;;7.00;100.00
65190;BME280;51777;53.570;9.984;2024-03-29T03:20:23;99102.84;;;6.98;100.00
65190;BME280;51777;53.570;9.984;2024-03-29T03:22:53;99097.06;;;6.96;100.00
65190;BME280;51777;53.570;9.984;2024-03-29T03:25:18;99098.97;;;6.94;100.00
65190;BME280;51777;53.570;9.984;2024-03-29T03:27:43;99098.97;;;6.94;100.00
65190;BME280;51777;53.570;9.984;2024-03-29T03:30:09;99091.28;;;6.94;100.00
65190;BME280;51777;53.570;9.984;2024-03-29T03:32:35;99090.34;;;6.95;100.00
65190;BME280;51777;53.570;9.984;2024-03-29T03:35:00;99090.16;;;6.97;100.00
65190;BME280;51777;53.570;9.984;2024-03-29T03:37:26;99095.47;;;6.95;100.00
65190;BME280;51777;53.570;9.984;2024-03-29T03:39:51;99103.31;;;6.94;100.00
65190;BME280;51777;53.570;9.984;2024-03-29T03:42:16;99101.88;;;6.91;100.00
65190;BME280;51777;53.570;9.984;2024-03-29T03:44:42;99104.94;;;6.87;100.00
65190;BME280;51777;53.570;9.984;2024-03-29T03:47:07;99108.81;;;6.83;100.00
65190;BME280;51777;53.570;9.984;2024-03-29T03:49:32;99112.47;;;6.80;100.00
65190;BME280;51777;53.570;9.984;2024-03-29T03:51:58;99112.66;;;6.78;100.00
65190;BME280;51777;53.570;9.984;2024-03-29T03:54:23;99127.41;;;6.76;100.00
65190;BME280;51777;53.570;9.984;2024-03-29T03:56:48;99131.13;;;6.74;100.00
65190;BME280;51777;53.570;9.984;2024-03-29T03:59:17;99125.00;;;6.67;100.00
65190;BME280;51777;53.570;9.984;2024-03-29T04:01:42;99125.81;;;6.67;100.00
65190;BME280;51777;53.570;9.984;2024-03-29T04:04:07;99117.97;;;6.61;100.00
65190;BME280;51777;53.570;9.984;2024-03-29T04:06:34;99126.63;;;6.60;100.00
65190;BME280;51777;53.570;9.984;2024-03-29T04:08:59;99119.22;;;6.57;100.00
65190;BME280;51777;53.570;9.984;2024-03-29T04:11:25;99129.34;;;6.58;100.00
65190;BME280;51777;53.570;9.984;2024-03-29T04:13:52;99128.69;;;6.56;100.00
65190;BME280;51777;53.570;9.984;2024-03-29T04:16:17;99123.41;;;6.58;100.00
65190;BME280;51777;53.570;9.984;2024-03-29T04:18:42;99123.25;;;6.59;100.00
65190;BME280;51777;53.570;9.984;2024-03-29T04:21:08;99116.81;;;6.63;100.00
65190;BME280;51777;53.570;9.984;2024-03-29T04:23:33;99120.19;;;6.64;100.00
65190;BME280;51777;53.570;9.984;2024-03-29T04:25:59;99115.53;;;6.67;100.00
65190;BME280;51777;53.570;9.984;2024-03-29T04:28:26;99117.94;;;6.69;100.00
65190;BME280;51777;53.570;9.984;2024-03-29T04:30:55;99106.72;;;6.70;100.00
65190;BME280;51777;53.570;9.984;2024-03-29T04:33:21;99106.72;;;6.70;100.00
65190;BME280;51777;53.570;9.984;2024-03-29T04:38:21;99104.81;;;6.72;100.00
65190;BME280;51777;53.570;9.984;2024-03-29T04:40:48;99120.03;;;6.73;100.00
65190;BME280;51777;53.570;9.984;2024-03-29T04:43:14;99118.59;;;6.71;100.00
65190;BME280;51777;53.570;9.984;2024-03-29T04:45:39;99111.88;;;6.70;100.00
65190;BME280;51777;53.570;9.984;2024-03-29T04:48:05;99117.00;;;6.70;100.00
65190;BME280;51777;53.570;9.984;2024-03-29T04:50:31;99123.75;;;6.71;100.00
65190;BME280;51777;53.570;9.984;2024-03-29T04:52:56;99127.28;;;6.70;100.00
65190;BME280;51777;53.570;9.984;2024-03-29T04:55:21;99130.66;;;6.70;100.00
65190;BME280;51777;53.570;9.984;2024-03-29T04:57:47;99141.41;;;6.74;100.00
65190;BME280;51777;53.570;9.984;2024-03-29T05:00:12;99136.91;;;6.76;100.00
65190;BME280;51777;53.570;9.984;2024-03-29T05:02:38;99149.56;;;6.77;100.00
65190;BME280;51777;53.570;9.984;2024-03-29T05:05:03;99146.38;;;6.75;100.00
65190;BME280;51777;53.570;9.984;2024-03-29T05:07:29;99159.03;;;6.77;100.00
65190;BME280;51777;53.570;9.984;2024-03-29T05:09:54;99161.44;;;6.78;100.00
65190;BME280;51777;53.570;9.984;2024-03-29T05:12:21;99158.72;;;6.80;100.00
65190;BME280;51777;53.570;9.984;2024-03-29T05:14:46;99150.03;;;6.81;100.00
65190;BME280;51777;53.570;9.984;2024-03-29T05:17:13;99141.41;;;6.82;100.00
65190;BME280;51777;53.570;9.984;2024-03-29T05:19:38;99154.09;;;6.84;100.00
65190;BME280;51777;53.570;9.984;2024-03-29T05:22:04;99162.28;;;6.87;100.00
65190;BME280;51777;53.570;9.984;2024-03-29T05:24:29;99159.38;;;6.90;100.00
65190;BME280;51777;53.570;9.984;2024-03-29T05:26:55;99149.91;;;6.91;100.00
65190;BME280;51777;53.570;9.984;2024-03-29T05:29:20;99151.50;;;6.92;100.00
65190;BME280;51777;53.570;9.984;2024-03-29T05:31:45;99160.50;;;6.96;100.00
65190;BME280;51777;53.570;9.984;2024-03-29T05:34:11;99170.47;;;6.99;100.00
65190;BME280;51777;53.570;9.984;2024-03-29T05:36:36;99170.94;;;7.02;100.00
65190;BME280;51777;53.570;9.984;2024-03-29T05:39:01;99167.41;;;7.03;100.00
65190;BME280;51777;53.570;9.984;2024-03-29T05:41:28;99176.25;;;7.01;100.00
65190;BME280;51777;53.570;9.984;2024-03-29T05:43:55;99185.38;;;7.03;100.00
65190;BME280;51777;53.570;9.984;2024-03-29T05:46:21;99188.59;;;7.05;100.00
65190;BME280;51777;53.570;9.984;2024-03-29T05:48:46;99188.13;;;7.10;100.00
65190;BME280;51777;53.570;9.984;2024-03-29T05:51:13;99187.97;;;7.12;100.00
65190;BME280;51777;53.570;9.984;2024-03-29T05:53:38;99197.28;;;7.13;100.00
65190;BME280;51777;53.570;9.984;2024-03-29T05:56:04;99192.94;;;7.13;100.00
65190;BME280;51777;53.570;9.984;2024-03-29T05:58:30;99178.94;;;7.16;100.00
65190;BME280;51777;53.570;9.984;2024-03-29T06:00:55;99189.88;;;7.18;100.00
65190;BME280;51777;53.570;9.984;2024-03-29T06:03:20;99197.28;;;7.21;100.00
65190;BME280;51777;53.570;9.984;2024-03-29T06:05:46;99210.78;;;7.23;100.00
65190;BME280;51777;53.570;9.984;2024-03-29T06:08:12;99199.03;;;7.28;100.00
65190;BME280;51777;53.570;9.984;2024-03-29T06:10:38;99193.56;;;7.31;100.00
65190;BME280;51777;53.570;9.984;2024-03-29T06:13:03;99200.47;;;7.31;100.00
65190;BME280;51777;53.570;9.984;2024-03-29T06:15:34;99214.94;;;7.32;100.00
65190;BME280;51777;53.570;9.984;2024-03-29T06:18:18;99207.53;;;7.37;100.00
65190;BME280;51777;53.570;9.984;2024-03-29T06:20:44;99208.97;;;7.40;100.00
65190;BME280;51777;53.570;9.984;2024-03-29T06:23:10;99212.06;;;7.35;100.00
65190;BME280;51777;53.570;9.984;2024-03-29T06:25:35;99214.47;;;7.45;100.00
65190;BME280;51777;53.570;9.984;2024-03-29T06:28:01;99223.59;;;7.47;100.00
65190;BME280;51777;53.570;9.984;2024-03-29T06:30:26;99208.66;;;7.51;100.00
65190;BME280;51777;53.570;9.984;2024-03-29T06:32:52;99216.19;;;7.52;100.00
65190;BME280;51777;53.570;9.984;2024-03-29T06:35:17;99219.41;;;7.54;100.00
65190;BME280;51777;53.570;9.984;2024-03-29T06:37:45;99213.63;;;7.60;100.00
65190;BME280;51777;53.570;9.984;2024-03-29T06:40:11;99228.72;;;7.63;100.00
65190;BME280;51777;53.570;9.984;2024-03-29T06:42:36;99219.88;;;7.66;100.00
65190;BME280;51777;53.570;9.984;2024-03-29T06:45:01;99225.50;;;7.70;100.00
65190;BME280;51777;53.570;9.984;2024-03-29T06:47:28;99229.69;;;7.71;100.00
65190;BME280;51777;53.570;9.984;2024-03-29T06:49:53;99223.56;;;7.72;100.00
65190;BME280;51777;53.570;9.984;2024-03-29T06:52:18;99228.03;;;7.78;100.00
65190;BME280;51777;53.570;9.984;2024-03-29T06:54:44;99227.69;;;7.81;100.00
65190;BME280;51777;53.570;9.984;2024-03-29T06:57:09;99217.09;;;7.84;100.00
65190;BME280;51777;53.570;9.984;2024-03-29T06:59:39;99219.34;;;7.87;100.00
65190;BME280;51777;53.570;9.984;2024-03-29T07:02:08;99218.19;;;7.89;100.00
65190;BME280;51777;53.570;9.984;2024-03-29T07:04:35;99216.88;;;7.93;100.00
65190;BME280;51777;53.570;9.984;2024-03-29T07:07:00;99222.53;;;7.97;100.00
65190;BME280;51777;53.570;9.984;2024-03-29T07:09:26;99237.94;;;8.05;100.00
65190;BME280;51777;53.570;9.984;2024-03-29T07:11:52;99243.69;;;8.15;100.00
65190;BME280;51777;53.570;9.984;2024-03-29T07:14:18;99253.97;;;8.23;100.00
65190;BME280;51777;53.570;9.984;2024-03-29T07:16:44;99252.84;;;8.34;100.00
65190;BME280;51777;53.570;9.984;2024-03-29T07:19:10;99236.88;;;8.39;100.00
65190;BME280;51777;53.570;9.984;2024-03-29T07:21:40;99243.41;;;8.49;100.00
65190;BME280;51777;53.570;9.984;2024-03-29T07:24:06;99252.09;;;8.57;100.00
65190;BME280;51777;53.570;9.984;2024-03-29T07:26:32;99243.50;;;8.64;100.00
65190;BME280;51777;53.570;9.984;2024-03-29T07:28:57;99248.63;;;8.72;100.00
65190;BME280;51777;53.570;9.984;2024-03-29T07:31:23;99264.97;;;8.79;100.00
65190;BME280;51777;53.570;9.984;2024-03-29T07:33:48;99265.56;;;8.90;100.00
65190;BME280;51777;53.570;9.984;2024-03-29T07:36:14;99255.31;;;9.04;100.00
65190;BME280;51777;53.570;9.984;2024-03-29T07:38:42;99267.72;;;9.09;100.00
65190;BME280;51777;53.570;9.984;2024-03-29T07:41:07;99275.72;;;9.14;100.00
65190;BME280;51777;53.570;9.984;2024-03-29T07:43:50;99263.44;;;9.16;100.00
65190;BME280;51777;53.570;9.984;2024-03-29T07:46:16;99288.91;;;9.19;100.00
65190;BME280;51777;53.570;9.984;2024-03-29T07:48:41;99272.78;;;9.17;100.00
65190;BME280;51777;53.570;9.984;2024-03-29T07:51:07;99276.28;;;9.24;100.00
65190;BME280;51777;53.570;9.984;2024-03-29T07:53:32;99281.09;;;9.27;100.00
65190;BME280;51777;53.570;9.984;2024-03-29T07:55:57;99280.13;;;9.28;100.00
65190;BME280;51777;53.570;9.984;2024-03-29T07:58:23;99277.53;;;9.28;100.00
65190;BME280;51777;53.570;9.984;2024-03-29T08:00:49;99282.81;;;9.35;100.00
65190;BME280;51777;53.570;9.984;2024-03-29T08:03:15;99290.22;;;9.38;100.00
65190;BME280;51777;53.570;9.984;2024-03-29T08:05:40;99294.56;;;9.37;100.00
65190;BME280;51777;53.570;9.984;2024-03-29T08:08:06;99299.69;;;9.46;100.00
65190;BME280;51777;53.570;9.984;2024-03-29T08:10:31;99303.25;;;9.45;100.00
65190;BME280;51777;53.570;9.984;2024-03-29T08:12:57;99313.03;;;9.49;100.00
65190;BME280;51777;53.570;9.984;2024-03-29T08:15:22;99308.50;;;9.51;100.00
65190;BME280;51777;53.570;9.984;2024-03-29T08:17:48;99318.00;;;9.51;100.00
65190;BME280;51777;53.570;9.984;2024-03-29T08:20:14;99325.75;;;9.51;100.00
65190;BME280;51777;53.570;9.984;2024-03-29T08:22:39;99323.00;;;9.52;100.00
65190;BME280;51777;53.570;9.984;2024-03-29T08:25:05;99315.38;;;9.59;100.00
65190;BME280;51777;53.570;9.984;2024-03-29T08:27:30;99320.19;;;9.62;100.00
65190;BME280;51777;53.570;9.984;2024-03-29T08:29:59;99319.50;;;9.68;100.00
65190;BME280;51777;53.570;9.984;2024-03-29T08:32:24;99318.34;;;9.70;100.00
65190;BME280;51777;53.570;9.984;2024-03-29T08:34:49;99308.88;;;9.63;100.00
65190;BME280;51777;53.570;9.984;2024-03-29T08:37:17;99301.31;;;9.61;100.00
65190;BME280;51777;53.570;9.984;2024-03-29T08:39:43;99298.38;;;9.64;100.00
65190;BME280;51777;53.570;9.984;2024-03-29T08:42:08;99286.44;;;9.63;100.00
65190;BME280;51777;53.570;9.984;2024-03-29T08:44:36;99279.34;;;9.65;100.00
65190;BME280;51777;53.570;9.984;2024-03-29T08:47:01;99284.53;;;9.80;100.00
65190;BME280;51777;53.570;9.984;2024-03-29T08:49:28;99277.13;;;9.92;100.00
65190;BME280;51777;53.570;9.984;2024-03-29T08:51:53;99282.47;;;9.90;100.00
65190;BME280;51777;53.570;9.984;2024-03-29T08:54:19;99273.75;;;9.91;100.00
65190;BME280;51777;53.570;9.984;2024-03-29T08:56:44;99279.56;;;9.93;100.00
65190;BME280;51777;53.570;9.984;2024-03-29T08:59:09;99269.84;;;10.10;100.00
65190;BME280;51777;53.570;9.984;2024-03-29T09:01:47;99265.94;;;10.29;100.00
65190;BME280;51777;53.570;9.984;2024-03-29T09:04:15;99256.50;;;10.36;100.00
65190;BME280;51777;53.570;9.984;2024-03-29T09:06:41;99265.00;;;10.30;100.00
65190;BME280;51777;53.570;9.984;2024-03-29T09:09:07;99273.44;;;10.39;100.00
65190;BME280;51777;53.570;9.984;2024-03-29T09:11:33;99266.84;;;10.36;100.00
65190;BME280;51777;53.570;9.984;2024-03-29T09:13:59;99271.03;;;10.37;100.00
65190;BME280;51777;53.570;9.984;2024-03-29T09:16:25;99264.16;;;10.44;100.00
65190;BME280;51777;53.570;9.984;2024-03-29T09:18:51;99257.47;;;10.50;100.00
65190;BME280;51777;53.570;9.984;2024-03-29T09:21:17;99251.78;;;10.40;100.00
65190;BME280;51777;53.570;9.984;2024-03-29T09:23:45;99249.38;;;10.38;100.00
65190;BME280;51777;53.570;9.984;2024-03-29T09:26:10;99251.59;;;10.41;100.00
65190;BME280;51777;53.570;9.984;2024-03-29T09:28:40;99248.13;;;10.34;100.00
65190;BME280;51777;53.570;9.984;2024-03-29T09:31:05;99254.81;;;10.28;100.00
65190;BME280;51777;53.570;9.984;2024-03-29T09:33:31;99252.69;;;10.17;100.00
65190;BME280;51777;53.570;9.984;2024-03-29T09:35:56;99253.47;;;10.18;100.00
65190;BME280;51777;53.570;9.984;2024-03-29T09:38:24;99254.63;;;10.15;100.00
65190;BME280;51777;53.570;9.984;2024-03-29T09:41:01;99248.47;;;10.01;100.00
65190;BME280;51777;53.570;9.984;2024-03-29T09:43:30;99243.75;;;9.90;100.00
65190;BME280;51777;53.570;9.984;2024-03-29T09:45:55;99241.34;;;9.89;100.00
65190;BME280;51777;53.570;9.984;2024-03-29T09:48:21;99226.47;;;9.91;100.00
65190;BME280;51777;53.570;9.984;2024-03-29T09:50:50;99227.56;;;9.96;100.00
65190;BME280;51777;53.570;9.984;2024-03-29T09:53:16;99236.56;;;10.00;100.00
65190;BME280;51777;53.570;9.984;2024-03-29T09:55:44;99247.78;;;9.93;100.00
65190;BME280;51777;53.570;9.984;2024-03-29T09:58:10;99238.59;;;9.90;100.00
65190;BME280;51777;53.570;9.984;2024-03-29T10:00:35;99244.03;;;9.95;100.00
65190;BME280;51777;53.570;9.984;2024-03-29T10:03:01;99234.69;;;9.94;100.00
65190;BME280;51777;53.570;9.984;2024-03-29T10:05:27;99223.22;;;9.97;100.00
65190;BME280;51777;53.570;9.984;2024-03-29T10:07:54;99220.34;;;9.92;100.00
65190;BME280;51777;53.570;9.984;2024-03-29T10:10:19;99216.25;;;9.97;100.00
65190;BME280;51777;53.570;9.984;2024-03-29T10:12:45;99201.66;;;9.90;100.00
65190;BME280;51777;53.570;9.984;2024-03-29T10:15:10;99209.75;;;9.87;100.00
65190;BME280;51777;53.570;9.984;2024-03-29T10:17:49;99213.94;;;9.88;100.00
65190;BME280;51777;53.570;9.984;2024-03-29T10:20:17;99214.03;;;9.94;100.00
65190;BME280;51777;53.570;9.984;2024-03-29T10:22:44;99213.06;;;9.95;100.00
65190;BME280;51777;53.570;9.984;2024-03-29T10:25:10;99214.94;;;9.87;100.00
65190;BME280;51777;53.570;9.984;2024-03-29T10:27:36;99205.31;;;9.81;100.00
65190;BME280;51777;53.570;9.984;2024-03-29T10:30:02;99217.59;;;9.79;100.00
65190;BME280;51777;53.570;9.984;2024-03-29T10:32:29;99204.59;;;9.87;100.00
65190;BME280;51777;53.570;9.984;2024-03-29T10:34:54;99208.25;;;9.92;100.00
65190;BME280;51777;53.570;9.984;2024-03-29T10:37:19;99199.88;;;9.90;100.00
65190;BME280;51777;53.570;9.984;2024-03-29T10:39:52;99200.22;;;9.87;100.00
65190;BME280;51777;53.570;9.984;2024-03-29T10:42:19;99201.03;;;9.88;100.00
65190;BME280;51777;53.570;9.984;2024-03-29T10:44:45;99193.47;;;9.86;100.00
65190;BME280;51777;53.570;9.984;2024-03-29T10:47:17;99203.09;;;9.92;100.00
65190;BME280;51777;53.570;9.984;2024-03-29T10:49:44;99214.38;;;9.91;100.00
65190;BME280;51777;53.570;9.984;2024-03-29T10:52:14;99209.69;;;9.95;100.00
65190;BME280;51777;53.570;9.984;2024-03-29T10:54:44;99202.38;;;9.98;100.00
65190;BME280;51777;53.570;9.984;2024-03-29T10:57:16;99206.81;;;10.05;100.00
65190;BME280;51777;53.570;9.984;2024-03-29T10:59:49;99209.03;;;10.08;100.00
65190;BME280;51777;53.570;9.984;2024-03-29T11:05:09;99194.97;;;10.10;100.00
65190;BME280;51777;53.570;9.984;2024-03-29T11:07:40;99200.31;;;10.09;100.00
65190;BME280;51777;53.570;9.984;2024-03-29T11:10:15;99198.91;;;10.06;100.00
65190;BME280;51777;53.570;9.984;2024-03-29T11:13:53;99219.63;;;10.13;100.00
65190;BME280;51777;53.570;9.984;2024-03-29T11:15:53;99219.19;;;10.24;100.00
65190;BME280;51777;53.570;9.984;2024-03-29T11:18:19;99227.19;;;10.29;100.00
65190;BME280;51777;53.570;9.984;2024-03-29T11:20:46;99220.94;;;10.38;100.00
65190;BME280;51777;53.570;9.984;2024-03-29T11:23:21;99229.97;;;10.42;100.00
65190;BME280;51777;53.570;9.984;2024-03-29T11:25:57;99215.94;;;10.51;100.00
65190;BME280;51777;53.570;9.984;2024-03-29T11:28:31;99220.13;;;10.52;100.00
65190;BME280;51777;53.570;9.984;2024-03-29T11:31:02;99212.03;;;10.55;100.00
65190;BME280;51777;53.570;9.984;2024-03-29T11:33:32;99219.03;;;10.62;100.00
65190;BME280;51777;53.570;9.984;2024-03-29T11:36:00;99225.94;;;10.76;100.00
65190;BME280;51777;53.570;9.984;2024-03-29T11:38:34;99220.78;;;10.97;100.00
65190;BME280;51777;53.570;9.984;2024-03-29T11:41:16;99226.25;;;11.09;100.00
65190;BME280;51777;53.570;9.984;2024-03-29T11:43:43;99233.69;;;11.18;100.00
65190;BME280;51777;53.570;9.984;2024-03-29T11:46:11;99238.88;;;11.18;100.00
65190;BME280;51777;53.570;9.984;2024-03-29T11:48:37;99233.19;;;11.30;100.00
65190;BME280;51777;53.570;9.984;2024-03-29T11:51:04;99226.88;;;11.39;100.00
65190;BME280;51777;53.570;9.984;2024-03-29T11:53:30;99216.63;;;11.52;100.00
65190;BME280;51777;53.570;9.984;2024-03-29T11:56:00;99210.56;;;11.66;100.00
65190;BME280;51777;53.570;9.984;2024-03-29T11:58:27;99210.59;;;11.73;100.00
65190;BME280;51777;53.570;9.984;2024-03-29T12:00:53;99213.28;;;11.86;100.00
65190;BME280;51777;53.570;9.984;2024-03-29T12:03:21;99215.88;;;11.86;100.00
65190;BME280;51777;53.570;9.984;2024-03-29T12:05:50;99226.28;;;11.93;100.00
65190;BME280;51777;53.570;9.984;2024-03-29T12:08:17;99229.94;;;12.12;100.00
65190;BME280;51777;53.570;9.984;2024-03-29T12:10:42;99239.03;;;12.35;100.00
65190;BME280;51777;53.570;9.984;2024-03-29T12:13:09;99242.88;;;12.53;100.00
65190;BME280;51777;53.570;9.984;2024-03-29T12:15:34;99239.91;;;12.56;100.00
65190;BME280;51777;53.570;9.984;2024-03-29T12:18:02;99227.56;;;12.71;100.00
65190;BME280;51777;53.570;9.984;2024-03-29T12:20:34;99223.38;;;12.70;100.00
65190;BME280;51777;53.570;9.984;2024-03-29T12:23:05;99240.56;;;12.84;100.00
65190;BME280;51777;53.570;9.984;2024-03-29T12:25:36;99235.78;;;12.81;100.00
65190;BME280;51777;53.570;9.984;2024-03-29T12:28:02;99237.59;;;13.01;100.00
65190;BME280;51777;53.570;9.984;2024-03-29T12:30:28;99234.38;;;12.99;100.00
65190;BME280;51777;53.570;9.984;2024-03-29T12:33:05;99234.00;;;12.95;100.00
65190;BME280;51777;53.570;9.984;2024-03-29T12:35:37;99230.81;;;12.93;100.00
65190;BME280;51777;53.570;9.984;2024-03-29T12:38:03;99241.75;;;12.88;100.00
65190;BME280;51777;53.570;9.984;2024-03-29T12:40:31;99254.28;;;12.72;100.00
65190;BME280;51777;53.570;9.984;2024-03-29T12:43:08;99251.63;;;12.52;100.00
65190;BME280;51777;53.570;9.984;2024-03-29T12:45:37;99243.09;;;12.58;100.00
65190;BME280;51777;53.570;9.984;2024-03-29T12:48:09;99258.88;;;12.76;100.00
65190;BME280;51777;53.570;9.984;2024-03-29T12:50:35;99268.66;;;12.74;100.00
65190;BME280;51777;53.570;9.984;2024-03-29T12:53:09;99252.91;;;12.69;100.00
65190;BME280;51777;53.570;9.984;2024-03-29T12:55:41;99248.13;;;12.79;100.00
65190;BME280;51777;53.570;9.984;2024-03-29T12:58:11;99242.94;;;12.66;100.00
65190;BME280;51777;53.570;9.984;2024-03-29T13:00:38;99246.34;;;12.80;100.00